createdAt,value
2018-09-25T00:01:19.648Z,1.62
2018-09-25T00:03:53.283Z,1.27
2018-09-25T00:06:27.239Z,1.80
2018-09-25T00:09:01.099Z,1.62
2018-09-25T00:11:34.834Z,1.80
2018-09-25T00:14:08.677Z,1.50
2018-09-25T00:16:42.565Z,1.32
2018-09-25T00:19:16.466Z,1.40
2018-09-25T00:21:50.335Z,1.75
2018-09-25T00:24:24.172Z,1.32
2018-09-25T00:26:58.054Z,1.30
2018-09-25T00:29:31.883Z,1.32
2018-09-25T00:32:05.717Z,2.00
2018-09-25T00:34:39.624Z,1.10
2018-09-25T00:37:13.531Z,1.82
2018-09-25T00:39:47.415Z,1.00
2018-09-25T00:42:21.295Z,1.25
2018-09-25T00:44:55.087Z,1.40
2018-09-25T00:47:29.025Z,1.87
2018-09-25T00:50:03.240Z,1.15
2018-09-25T00:52:37.120Z,1.30
2018-09-25T00:55:10.948Z,1.50
2018-09-25T00:57:44.839Z,2.10
2018-09-25T01:00:18.640Z,1.95
2018-09-25T01:02:52.415Z,1.90
2018-09-25T01:05:26.222Z,1.20
2018-09-25T01:08:00.116Z,1.70
2018-09-25T01:10:34.126Z,1.60
2018-09-25T01:13:08.207Z,1.87
2018-09-25T01:15:41.827Z,1.85
2018-09-25T01:18:15.563Z,1.75
2018-09-25T01:20:49.369Z,1.70
2018-09-25T01:23:23.835Z,1.55
2018-09-25T01:25:57.700Z,1.52
2018-09-25T01:28:31.398Z,1.35
2018-09-25T01:31:05.212Z,1.60
2018-09-25T01:33:39.103Z,1.75
2018-09-25T01:36:12.892Z,1.82
2018-09-25T01:38:46.660Z,1.20
2018-09-25T01:41:20.399Z,1.80
2018-09-25T01:43:54.311Z,1.67
2018-09-25T01:46:28.132Z,1.62
2018-09-25T01:49:01.930Z,1.82
2018-09-25T01:51:35.635Z,1.72
2018-09-25T01:54:09.544Z,1.75
2018-09-25T01:56:43.392Z,1.90
2018-09-25T01:59:17.336Z,1.90
2018-09-25T02:01:51.027Z,1.50
2018-09-25T02:04:24.726Z,1.50
2018-09-25T02:06:58.547Z,1.42
2018-09-25T02:09:32.387Z,1.45
2018-09-25T02:12:06.067Z,1.52
2018-09-25T02:14:39.924Z,1.60
2018-09-25T02:17:13.575Z,1.32
2018-09-25T02:19:47.328Z,1.25
2018-09-25T02:22:21.095Z,1.30
2018-09-25T02:24:54.833Z,1.75
2018-09-25T02:27:28.656Z,2.33
2018-09-25T02:30:02.532Z,2.05
2018-09-25T02:32:36.275Z,2.45
2018-09-25T02:35:10.459Z,1.92
2018-09-25T02:37:44.255Z,1.35
2018-09-25T02:40:18.224Z,1.82
2018-09-25T02:42:52.176Z,1.95
2018-09-25T02:45:25.959Z,1.37
2018-09-25T02:47:59.644Z,1.60
2018-09-25T02:50:33.383Z,1.85
2018-09-25T02:53:07.315Z,1.62
2018-09-25T02:55:41.108Z,1.75
2018-09-25T02:58:14.839Z,1.77
2018-09-25T03:00:48.561Z,1.42
2018-09-25T03:03:22.427Z,1.92
2018-09-25T03:05:56.485Z,1.72
2018-09-25T03:08:30.231Z,2.30
2018-09-25T03:11:04.079Z,1.50
2018-09-25T03:13:37.795Z,1.92
2018-09-25T03:16:11.500Z,1.45
2018-09-25T03:18:45.275Z,2.45
2018-09-25T03:21:19.095Z,2.00
2018-09-25T03:23:52.876Z,1.87
2018-09-25T03:26:27.000Z,1.87
2018-09-25T03:29:00.672Z,2.22
2018-09-25T03:31:34.689Z,2.58
2018-09-25T03:34:08.530Z,1.80
2018-09-25T03:36:42.396Z,1.77
2018-09-25T03:39:16.180Z,1.82
2018-09-25T03:41:50.468Z,2.20
2018-09-25T03:44:24.219Z,2.35
2018-09-25T03:46:58.093Z,1.60
2018-09-25T03:49:32.779Z,1.80
2018-09-25T03:52:06.588Z,1.80
2018-09-25T03:54:40.288Z,1.37
2018-09-25T03:57:14.420Z,2.12
2018-09-25T03:59:48.275Z,1.67
2018-09-25T04:02:22.099Z,2.25
2018-09-25T04:04:55.898Z,1.60
2018-09-25T04:07:29.858Z,2.30
2018-09-25T04:10:03.464Z,1.80
2018-09-25T04:12:37.267Z,2.02
2018-09-25T04:15:11.063Z,2.10
2018-09-25T04:17:45.004Z,1.90
2018-09-25T04:20:18.733Z,1.72
2018-09-25T04:22:52.415Z,1.67
2018-09-25T04:25:26.306Z,1.77
2018-09-25T04:28:00.338Z,2.30
2018-09-25T04:30:34.431Z,1.45
2018-09-25T04:33:08.263Z,1.67
2018-09-25T04:35:42.432Z,2.12
2018-09-25T04:38:16.212Z,1.60
2018-09-25T04:40:49.943Z,1.72
2018-09-25T04:43:23.673Z,2.15
2018-09-25T04:45:57.445Z,1.85
2018-09-25T04:48:31.263Z,2.40
2018-09-25T04:51:05.085Z,2.20
2018-09-25T04:53:38.836Z,1.65
2018-09-25T04:56:12.616Z,2.22
2018-09-25T04:58:46.364Z,1.87
2018-09-25T05:01:20.150Z,2.25
2018-09-25T05:03:53.991Z,2.52
2018-09-25T05:06:27.907Z,1.77
2018-09-25T05:09:01.740Z,2.25
2018-09-25T05:11:35.592Z,2.45
2018-09-25T05:14:09.454Z,2.00
2018-09-25T05:16:43.344Z,1.80
2018-09-25T05:19:17.148Z,1.95
2018-09-25T05:21:50.976Z,2.10
2018-09-25T05:24:24.832Z,2.62
2018-09-25T05:26:58.560Z,3.35
2018-09-25T05:29:32.284Z,1.92
2018-09-25T05:32:05.943Z,2.00
2018-09-25T05:34:39.925Z,2.00
2018-09-25T05:37:13.800Z,2.33
2018-09-25T05:39:47.532Z,1.98
2018-09-25T05:42:21.282Z,2.47
2018-09-25T05:44:55.020Z,2.60
2018-09-25T05:47:28.876Z,2.87
2018-09-25T05:50:02.763Z,2.67
2018-09-25T05:52:36.512Z,2.50
2018-09-25T05:55:10.351Z,2.65
2018-09-25T05:57:44.136Z,3.00
2018-09-25T06:00:17.831Z,2.52
2018-09-25T06:02:51.591Z,2.67
2018-09-25T06:05:25.664Z,2.62
2018-09-25T06:07:59.406Z,2.58
2018-09-25T06:10:33.208Z,2.10
2018-09-25T06:13:07.079Z,2.60
2018-09-25T06:15:41.090Z,2.22
2018-09-25T06:18:14.943Z,2.77
2018-09-25T06:20:49.004Z,2.37
2018-09-25T06:23:22.856Z,3.15
2018-09-25T06:25:56.689Z,2.20
2018-09-25T06:28:30.509Z,2.50
2018-09-25T06:31:04.483Z,2.20
2018-09-25T06:33:38.297Z,2.17
2018-09-25T06:36:12.155Z,2.58
2018-09-25T06:38:45.873Z,2.27
2018-09-25T06:41:19.699Z,2.87
2018-09-25T06:43:53.484Z,2.70
2018-09-25T06:46:27.212Z,2.52
2018-09-25T06:49:01.075Z,2.80
2018-09-25T06:51:34.924Z,2.83
2018-09-25T06:54:08.758Z,2.55
2018-09-25T06:56:42.695Z,3.75
2018-09-25T06:59:16.540Z,3.45
2018-09-25T07:01:50.348Z,3.15
2018-09-25T07:04:24.256Z,3.05
2018-09-25T07:06:58.139Z,2.83
2018-09-25T07:09:32.003Z,3.22
2018-09-25T07:12:05.976Z,3.37
2018-09-25T07:14:39.831Z,3.37
2018-09-25T07:17:13.612Z,3.70
2018-09-25T07:19:47.380Z,3.10
2018-09-25T07:22:21.404Z,2.90
2018-09-25T07:24:55.336Z,3.10
2018-09-25T07:27:29.151Z,3.20
2018-09-25T07:30:03.064Z,3.60
2018-09-25T07:32:36.948Z,3.67
2018-09-25T07:35:11.089Z,2.93
2018-09-25T07:37:45.356Z,2.57
2018-09-25T07:40:19.180Z,3.17
2018-09-25T07:42:52.853Z,3.50
2018-09-25T07:45:26.788Z,3.87
2018-09-25T07:48:00.657Z,3.00
2018-09-25T07:50:34.387Z,3.17
2018-09-25T07:53:08.604Z,3.60
2018-09-25T07:55:42.470Z,3.93
2018-09-25T07:58:16.273Z,3.13
2018-09-25T08:00:50.004Z,3.00
2018-09-25T08:03:23.821Z,3.73
2018-09-25T08:05:57.648Z,2.37
2018-09-25T08:08:31.503Z,2.20
2018-09-25T08:11:05.380Z,2.00
2018-09-25T08:13:39.235Z,1.70
2018-09-25T08:16:13.187Z,1.60
2018-09-25T08:18:47.068Z,1.63
2018-09-25T08:21:20.944Z,1.50
2018-09-25T08:23:54.797Z,1.30
2018-09-25T08:26:28.702Z,1.60
2018-09-25T08:29:02.432Z,2.00
2018-09-25T08:31:36.264Z,1.27
2018-09-25T08:34:10.099Z,1.53
2018-09-25T08:36:43.976Z,1.90
2018-09-25T08:39:17.756Z,1.70
2018-09-25T08:41:51.679Z,2.00
2018-09-25T08:44:25.633Z,1.93
2018-09-25T08:46:59.479Z,1.67
2018-09-25T08:49:33.679Z,1.63
2018-09-25T08:52:07.371Z,1.60
2018-09-25T08:54:41.115Z,1.30
2018-09-25T08:57:15.008Z,2.03
2018-09-25T08:59:48.764Z,1.17
2018-09-25T09:02:22.743Z,1.13
2018-09-25T09:04:56.545Z,1.37
2018-09-25T09:07:30.234Z,1.70
2018-09-25T09:10:03.899Z,1.53
2018-09-25T09:12:37.597Z,1.50
2018-09-25T09:15:11.522Z,1.40
2018-09-25T09:17:45.358Z,1.27
2018-09-25T09:20:19.211Z,1.90
2018-09-25T09:22:53.080Z,1.27
2018-09-25T09:25:26.800Z,1.10
2018-09-25T09:28:00.686Z,1.10
2018-09-25T09:30:34.396Z,1.53
2018-09-25T09:33:08.159Z,1.67
2018-09-25T09:35:42.088Z,0.90
2018-09-25T09:38:15.960Z,1.10
2018-09-25T09:40:49.971Z,1.00
2018-09-25T09:43:23.588Z,1.13
2018-09-25T09:45:57.542Z,0.97
2018-09-25T09:48:31.470Z,0.60
2018-09-25T09:51:05.247Z,1.00
2018-09-25T09:53:38.928Z,0.90
2018-09-25T09:56:12.990Z,0.70
2018-09-25T09:58:46.799Z,0.50
2018-09-25T10:01:20.612Z,0.70
2018-09-25T10:03:54.408Z,0.93
2018-09-25T10:06:28.116Z,0.67
2018-09-25T10:09:01.994Z,0.87
2018-09-25T10:11:35.799Z,0.60
2018-09-25T10:14:09.735Z,0.67
2018-09-25T10:16:43.584Z,0.90
2018-09-25T10:19:17.353Z,0.60
2018-09-25T10:21:51.155Z,0.60
2018-09-25T10:24:24.912Z,1.10
2018-09-25T10:26:58.749Z,0.87
2018-09-25T10:29:32.503Z,0.73
2018-09-25T10:32:06.328Z,2.20
2018-09-25T10:34:39.916Z,0.87
2018-09-25T10:37:13.644Z,1.03
2018-09-25T10:39:47.599Z,1.00
2018-09-25T10:42:21.720Z,0.80
2018-09-25T10:44:56.516Z,0.70
2018-09-25T10:47:30.452Z,0.80
2018-09-25T10:50:04.331Z,0.90
2018-09-25T10:52:38.212Z,0.80
2018-09-25T10:55:11.876Z,1.33
2018-09-25T10:57:45.842Z,0.73
2018-09-25T11:00:19.719Z,0.90
2018-09-25T11:02:53.537Z,2.20
2018-09-25T11:05:27.351Z,0.60
2018-09-25T11:08:01.011Z,0.77
2018-09-25T11:10:34.917Z,2.03
2018-09-25T11:13:08.747Z,0.97
2018-09-25T11:15:42.599Z,0.70
2018-09-25T11:18:16.620Z,0.80
2018-09-25T11:20:50.288Z,1.00
2018-09-25T11:23:23.997Z,1.10
2018-09-25T11:25:57.923Z,1.00
2018-09-25T11:28:31.913Z,0.70
2018-09-25T11:31:05.740Z,0.60
2018-09-25T11:33:39.548Z,1.07
2018-09-25T11:36:13.275Z,0.87
2018-09-25T11:38:47.568Z,0.90
2018-09-25T11:41:21.379Z,0.80
2018-09-25T11:43:55.284Z,1.30
2018-09-25T11:46:28.971Z,0.90
2018-09-25T11:49:02.792Z,0.80
2018-09-25T11:51:36.581Z,0.90
2018-09-25T11:54:10.424Z,1.20
2018-09-25T11:56:44.220Z,1.00
2018-09-25T11:59:18.080Z,1.00
2018-09-25T12:01:51.881Z,1.23
2018-09-25T12:04:25.665Z,0.70
2018-09-25T12:06:59.467Z,0.90
2018-09-25T12:09:33.326Z,1.00
2018-09-25T12:12:07.177Z,1.33
2018-09-25T12:14:40.982Z,0.60
2018-09-25T12:17:14.676Z,0.80
2018-09-25T12:19:48.460Z,0.90
2018-09-25T12:22:22.283Z,1.03
2018-09-25T12:24:56.311Z,0.67
2018-09-25T12:27:30.120Z,0.97
2018-09-25T12:30:03.892Z,0.80
2018-09-25T12:32:37.862Z,1.27
2018-09-25T12:35:12.237Z,1.13
2018-09-25T12:37:46.040Z,1.23
2018-09-25T12:40:20.104Z,1.03
2018-09-25T12:42:53.885Z,1.10
2018-09-25T12:45:27.771Z,0.90
2018-09-25T12:48:01.509Z,1.07
2018-09-25T12:50:35.407Z,0.80
2018-09-25T12:53:09.190Z,1.63
2018-09-25T12:55:43.008Z,0.87
2018-09-25T12:58:16.810Z,1.00
2018-09-25T13:00:51.031Z,0.97
2018-09-25T13:03:24.808Z,0.90
2018-09-25T13:05:58.629Z,0.70
2018-09-25T13:08:32.292Z,1.07
2018-09-25T13:11:06.447Z,0.67
2018-09-25T13:13:40.277Z,0.80
2018-09-25T13:16:14.139Z,0.83
2018-09-25T13:18:48.103Z,0.90
2018-09-25T13:21:22.418Z,0.97
2018-09-25T13:23:56.286Z,1.23
2018-09-25T13:26:30.387Z,0.83
2018-09-25T13:29:04.224Z,1.00
2018-09-25T13:31:38.239Z,0.80
2018-09-25T13:34:12.155Z,2.50
2018-09-25T13:36:45.999Z,0.90
2018-09-25T13:39:19.745Z,1.13
2018-09-25T13:41:53.560Z,0.87
2018-09-25T13:44:27.356Z,0.90
2018-09-25T13:47:01.084Z,0.83
2018-09-25T13:49:34.879Z,0.93
2018-09-25T13:52:09.117Z,1.43
2018-09-25T13:54:42.923Z,0.60
2018-09-25T13:57:16.755Z,0.63
2018-09-25T13:59:50.371Z,0.90
2018-09-25T14:02:24.204Z,0.60
2018-09-25T14:04:58.063Z,0.80
2018-09-25T14:07:31.850Z,0.80
2018-09-25T14:10:05.612Z,0.80
2018-09-25T14:12:39.403Z,1.27
2018-09-25T14:15:13.130Z,1.30
2018-09-25T14:17:46.865Z,1.07
2018-09-25T14:20:20.660Z,0.73
2018-09-25T14:22:54.516Z,1.47
2018-09-25T14:25:28.178Z,1.10
2018-09-25T14:28:01.924Z,0.60
2018-09-25T14:30:35.583Z,0.93
2018-09-25T14:33:09.387Z,0.67
2018-09-25T14:35:43.575Z,0.90
2018-09-25T14:38:17.428Z,0.70
2018-09-25T14:40:51.148Z,0.50
2018-09-25T14:43:25.007Z,0.77
2018-09-25T14:45:58.718Z,1.07
2018-09-25T14:48:32.670Z,0.90
2018-09-25T14:51:06.677Z,0.80
2018-09-25T14:53:40.986Z,0.93
2018-09-25T14:56:14.850Z,1.00
2018-09-25T14:58:48.967Z,1.13
2018-09-25T15:01:22.814Z,0.50
2018-09-25T15:03:56.588Z,1.00
2018-09-25T15:06:30.359Z,1.23
2018-09-25T15:09:04.122Z,1.30
2018-09-25T15:11:37.972Z,0.70
2018-09-25T15:14:12.241Z,0.77
2018-09-25T15:16:45.927Z,0.90
2018-09-25T15:19:20.071Z,0.60
2018-09-25T15:21:54.061Z,0.70
2018-09-25T15:24:27.740Z,1.07
2018-09-25T15:27:01.519Z,1.03
2018-09-25T15:29:35.387Z,0.80
2018-09-25T15:32:09.544Z,0.60
2018-09-25T15:34:43.431Z,1.03
2018-09-25T15:37:17.316Z,0.80
2018-09-25T15:39:51.225Z,0.80
2018-09-25T15:42:25.140Z,0.97
2018-09-25T15:44:59.007Z,0.73
2018-09-25T15:47:32.859Z,1.10
2018-09-25T15:50:07.076Z,0.90
2018-09-25T15:52:40.872Z,0.70
2018-09-25T15:55:14.776Z,1.00
2018-09-25T15:57:48.756Z,1.07
2018-09-25T16:00:22.619Z,1.30
2018-09-25T16:02:56.518Z,0.60
2018-09-25T16:05:30.635Z,1.43
2018-09-25T16:08:04.533Z,0.80
2018-09-25T16:10:38.452Z,0.70
2018-09-25T16:13:12.863Z,0.70
2018-09-25T16:15:46.786Z,0.80
2018-09-25T16:18:20.695Z,1.00
2018-09-25T16:20:54.464Z,1.37
2018-09-25T16:23:28.394Z,1.17
2018-09-25T16:26:02.209Z,0.70
2018-09-25T16:28:35.874Z,1.07
2018-09-25T16:31:09.734Z,0.77
2018-09-25T16:33:43.593Z,0.90
2018-09-25T16:36:17.328Z,1.03
2018-09-25T16:38:51.225Z,0.67
2018-09-25T16:41:25.060Z,0.77
2018-09-25T16:43:58.938Z,0.80
2018-09-25T16:46:32.780Z,0.80
2018-09-25T16:49:13.636Z,1.00
2018-09-25T16:51:47.563Z,0.60
2018-09-25T16:54:21.339Z,0.50
2018-09-25T16:56:55.454Z,0.90
2018-09-25T16:59:29.412Z,1.10
2018-09-25T17:02:03.689Z,0.70
2018-09-25T17:04:37.541Z,0.90
2018-09-25T17:07:11.579Z,0.90
2018-09-25T17:09:45.387Z,1.60
2018-09-25T17:12:19.268Z,1.00
2018-09-25T17:14:52.923Z,1.23
2018-09-25T17:17:26.647Z,1.17
2018-09-25T17:20:00.332Z,1.77
2018-09-25T17:22:34.073Z,0.90
2018-09-25T17:25:07.803Z,1.13
2018-09-25T17:27:41.958Z,0.93
2018-09-25T17:30:15.735Z,0.90
2018-09-25T17:32:49.619Z,1.17
2018-09-25T17:35:23.443Z,1.20
2018-09-25T17:37:57.717Z,1.70
2018-09-25T17:40:31.471Z,0.93
2018-09-25T17:43:05.763Z,0.90
2018-09-25T17:45:39.727Z,0.93
2018-09-25T17:48:13.455Z,1.10
2018-09-25T17:50:47.640Z,1.20
2018-09-25T17:53:21.789Z,1.67
2018-09-25T17:55:55.971Z,0.83
2018-09-25T17:58:30.339Z,0.80
2018-09-25T18:01:04.291Z,1.30
2018-09-25T18:03:38.185Z,0.70
2018-09-25T18:06:12.015Z,1.60
2018-09-25T18:08:46.212Z,1.00
2018-09-25T18:11:20.069Z,1.50
2018-09-25T18:13:54.011Z,0.97
2018-09-25T18:16:27.859Z,1.20
2018-09-25T18:19:01.660Z,1.50
2018-09-25T18:21:35.784Z,1.20
2018-09-25T18:24:10.361Z,1.20
2018-09-25T18:26:44.128Z,1.43
2018-09-25T18:29:18.044Z,2.70
2018-09-25T18:31:51.789Z,1.90
2018-09-25T18:34:25.804Z,2.40
2018-09-25T18:36:59.639Z,1.87
2018-09-25T18:39:33.520Z,1.20
2018-09-25T18:42:07.432Z,1.50
2018-09-25T18:44:41.255Z,0.80
2018-09-25T18:47:15.007Z,1.20
2018-09-25T18:49:48.801Z,1.53
2018-09-25T18:52:22.620Z,1.27
2018-09-25T18:54:56.763Z,1.30
2018-09-25T18:57:30.704Z,1.10
2018-09-25T19:00:05.044Z,1.27
2018-09-25T19:02:38.846Z,1.07
2018-09-25T19:05:13.346Z,1.27
2018-09-25T19:07:47.167Z,1.30
2018-09-25T19:10:21.096Z,1.47
2018-09-25T19:12:54.828Z,1.30
2018-09-25T19:15:29.057Z,1.10
2018-09-25T19:18:02.941Z,0.80
2018-09-25T19:20:36.886Z,1.57
2018-09-25T19:23:10.648Z,1.13
2018-09-25T19:25:44.561Z,1.50
2018-09-25T19:28:18.496Z,1.03
2018-09-25T19:30:52.578Z,1.80
2018-09-25T19:33:26.460Z,1.10
2018-09-25T19:36:00.709Z,1.47
2018-09-25T19:38:34.596Z,1.40
2018-09-25T19:41:08.401Z,2.37
2018-09-25T19:43:42.282Z,1.00
2018-09-25T19:46:16.108Z,1.17
2018-09-25T19:48:49.838Z,1.60
2018-09-25T19:51:23.737Z,1.37
2018-09-25T19:53:57.547Z,1.20
2018-09-25T19:56:31.778Z,1.30
2018-09-25T19:59:06.220Z,1.97
2018-09-25T20:01:40.156Z,1.43
2018-09-25T20:04:13.912Z,1.90
2018-09-25T20:06:47.668Z,1.10
2018-09-25T20:09:21.565Z,1.30
2018-09-25T20:11:55.416Z,1.53
2018-09-25T20:14:29.216Z,1.73
2018-09-25T20:17:03.220Z,1.80
2018-09-25T20:19:37.088Z,1.60
2018-09-25T20:22:13.184Z,1.47
2018-09-25T20:24:47.115Z,0.97
2018-09-25T20:27:21.134Z,1.77
2018-09-25T20:29:54.704Z,1.10
2018-09-25T20:32:28.564Z,1.27
2018-09-25T20:35:02.439Z,3.03
2018-09-25T20:37:36.158Z,1.73
2018-09-25T20:40:10.388Z,1.90
2018-09-25T20:42:44.544Z,1.50
2018-09-25T20:45:18.712Z,1.17
2018-09-25T20:47:52.681Z,1.33
2018-09-25T20:50:26.472Z,1.70
2018-09-25T20:53:00.315Z,1.30
2018-09-25T20:55:34.219Z,1.23
2018-09-25T20:58:08.058Z,1.50
2018-09-25T21:00:41.925Z,1.33
2018-09-25T21:03:15.829Z,1.23
2018-09-25T21:05:49.511Z,1.37
2018-09-25T21:08:23.472Z,1.10
2018-09-25T21:10:57.272Z,1.23
2018-09-25T21:13:30.997Z,0.90
2018-09-25T21:16:04.611Z,1.30
2018-09-25T21:18:38.575Z,1.90
2018-09-25T21:21:12.624Z,1.30
2018-09-25T21:23:46.904Z,2.10
2018-09-25T21:26:20.648Z,1.33
2018-09-25T21:28:54.881Z,1.40
2018-09-25T21:31:28.832Z,1.20
2018-09-25T21:34:02.646Z,1.30
2018-09-25T21:36:36.564Z,1.27
2018-09-25T21:39:13.133Z,0.90
2018-09-25T21:41:47.399Z,1.15
2018-09-25T21:44:21.291Z,1.50
2018-09-25T21:46:55.152Z,0.80
2018-09-25T21:49:28.932Z,1.15
2018-09-25T21:52:02.597Z,1.50
2018-09-25T21:54:36.799Z,1.22
2018-09-25T21:57:10.866Z,1.65
2018-09-25T21:59:44.544Z,1.45
2018-09-25T22:02:18.478Z,1.50
2018-09-25T22:04:52.318Z,1.72
2018-09-25T22:07:26.116Z,2.30
2018-09-25T22:10:00.000Z,1.67
2018-09-25T22:12:33.922Z,1.30
2018-09-25T22:15:07.884Z,1.25
2018-09-25T22:17:41.776Z,1.60
2018-09-25T22:20:15.890Z,2.72
2018-09-25T22:22:49.815Z,1.90
2018-09-25T22:25:25.071Z,1.92
2018-09-25T22:27:58.868Z,1.65
2018-09-25T22:30:33.770Z,1.82
2018-09-25T22:33:07.575Z,2.15
2018-09-25T22:35:41.628Z,2.20
2018-09-25T22:38:15.496Z,2.20
2018-09-25T22:40:49.583Z,2.05
2018-09-25T22:43:23.440Z,2.35
2018-09-25T22:45:57.631Z,2.15
2018-09-25T22:48:31.438Z,1.50
2018-09-25T22:51:05.361Z,1.77
2018-09-25T22:53:39.063Z,2.10
2018-09-25T22:56:13.862Z,1.57
2018-09-25T22:58:48.684Z,2.20
2018-09-25T23:01:22.647Z,1.85
2018-09-25T23:03:56.532Z,1.72
2018-09-25T23:06:30.228Z,2.02
2018-09-25T23:09:04.035Z,1.90
2018-09-25T23:11:37.973Z,2.45
2018-09-25T23:14:12.015Z,1.50
2018-09-25T23:16:46.871Z,2.45
2018-09-25T23:19:20.656Z,2.30
2018-09-25T23:21:54.672Z,1.90
2018-09-25T23:24:28.560Z,1.90
2018-09-25T23:27:02.467Z,2.02
2018-09-25T23:29:36.453Z,1.85
2018-09-25T23:32:10.276Z,2.77
2018-09-25T23:34:44.599Z,1.85
2018-09-25T23:37:18.471Z,1.20
2018-09-25T23:40:10.240Z,2.30
2018-09-25T23:42:44.169Z,1.20
2018-09-25T23:45:21.905Z,2.17
2018-09-25T23:47:56.865Z,1.60
2018-09-25T23:50:32.931Z,2.42
2018-09-25T23:53:35.048Z,2.10
2018-09-25T23:56:08.861Z,1.52
2018-09-25T23:58:42.588Z,1.62
